Time;durP1;ratioP1;P1;durP2;ratioP2;P2;SDS_P1;SDS_P2;PMS_P1;PMS_P2;Temp;Humidity;BMP_temperature;BMP_pressure;BME280_temperature;BME280_humidity;BME280_pressure;Samples;Min_cycle;Max_cycle;Signal;HPM_P1;HPM_P2
2023/07/17 00:01:46;;;;;;;0.10;0.10;;;15.20;58.50;;;;;;5052474;28;20203;-51
2023/07/17 00:04:16;;;;;;;0.10;0.10;;;15.20;58.50;;;;;;5053347;28;20199;-51
2023/07/17 00:06:47;;;;;;;0.10;0.10;;;15.20;58.50;;;;;;5052439;28;20607;-51
2023/07/17 00:09:18;;;;;;;0.10;0.10;;;15.30;58.60;;;;;;5052194;28;20191;-49
2023/07/17 00:11:48;;;;;;;0.08;0.08;;;15.30;58.70;;;;;;5052426;28;20203;-50
2023/07/17 00:14:21;;;;;;;0.10;0.10;;;15.30;58.70;;;;;;5052085;28;20229;-48
2023/07/17 00:16:51;;;;;;;0.10;0.10;;;15.40;58.80;;;;;;5044153;28;20188;-51
2023/07/17 00:19:22;;;;;;;0.10;0.10;;;15.30;58.70;;;;;;5031831;28;20203;-51
2023/07/17 00:21:53;;;;;;;0.10;0.10;;;15.40;58.70;;;;;;5050707;28;20196;-50
2023/07/17 00:24:23;;;;;;;0.10;0.10;;;15.40;58.70;;;;;;5051999;28;20192;-52
2023/07/17 00:26:54;;;;;;;0.10;0.10;;;15.40;58.70;;;;;;5038754;28;20204;-50
2023/07/17 00:29:28;;;;;;;0.10;0.10;;;15.40;58.60;;;;;;5032701;28;20663;-51
2023/07/17 00:31:59;;;;;;;0.10;0.10;;;15.40;58.70;;;;;;5037009;28;20220;-52
2023/07/17 00:34:30;;;;;;;0.10;0.10;;;15.50;58.80;;;;;;5041088;28;20709;-54
2023/07/17 00:37:01;;;;;;;0.10;0.10;;;15.50;58.80;;;;;;5052099;28;20245;-48
2023/07/17 00:39:31;;;;;;;0.10;0.10;;;15.50;58.80;;;;;;5052638;28;20199;-53
2023/07/17 00:42:03;;;;;;;0.10;0.10;;;15.60;59.30;;;;;;5051135;28;20210;-49
2023/07/17 00:44:38;;;;;;;0.10;0.10;;;15.60;58.90;;;;;;5051643;28;20223;-52
2023/07/17 00:47:10;;;;;;;0.10;0.10;;;15.60;59.40;;;;;;5051335;28;20448;-47
2023/07/17 00:49:41;;;;;;;0.10;0.10;;;15.60;59.00;;;;;;5052370;28;20199;-48
2023/07/17 00:52:13;;;;;;;0.10;0.10;;;15.60;59.00;;;;;;5051616;28;20199;-47
2023/07/17 00:54:45;;;;;;;0.10;0.10;;;15.70;58.90;;;;;;5051646;28;20219;-48
2023/07/17 00:57:18;;;;;;;0.10;0.10;;;15.70;58.90;;;;;;5031929;28;20550;-47
2023/07/17 00:59:50;;;;;;;0.10;0.10;;;15.70;59.00;;;;;;5039291;28;20208;-49
2023/07/17 01:02:22;;;;;;;0.08;0.08;;;15.70;59.10;;;;;;5048479;28;20253;-51
2023/07/17 01:04:52;;;;;;;0.10;0.10;;;15.80;59.10;;;;;;5050767;28;20582;-51
2023/07/17 01:07:23;;;;;;;0.00;0.00;;;15.80;59.10;;;;;;5051961;28;20223;-50
2023/07/17 01:09:53;;;;;;;0.00;0.00;;;15.80;59.10;;;;;;5051852;28;20191;-50
2023/07/17 01:12:24;;;;;;;0.00;0.00;;;15.90;59.10;;;;;;5031878;28;20555;-51
2023/07/17 01:14:56;;;;;;;0.10;0.10;;;15.90;59.20;;;;;;5031165;28;20231;-49
2023/07/17 01:17:27;;;;;;;0.03;0.03;;;15.90;59.10;;;;;;5030864;28;20254;-50
2023/07/17 01:19:58;;;;;;;0.10;0.10;;;16.00;59.10;;;;;;5031246;28;20188;-51
2023/07/17 01:22:31;;;;;;;0.10;0.10;;;16.00;59.10;;;;;;5030994;28;20220;-54
2023/07/17 01:25:04;;;;;;;0.00;0.00;;;16.00;59.00;;;;;;5030465;28;20219;-46
2023/07/17 01:27:35;;;;;;;0.10;0.10;;;16.00;59.00;;;;;;5032961;28;20311;-52
2023/07/17 01:30:06;;;;;;;0.03;0.03;;;16.10;59.10;;;;;;5031407;28;20200;-50
2023/07/17 01:32:37;;;;;;;0.10;0.10;;;16.10;59.10;;;;;;5031594;28;20457;-50
2023/07/17 01:35:08;;;;;;;0.10;0.10;;;16.10;59.10;;;;;;5031283;28;20216;-47
2023/07/17 01:37:38;;;;;;;0.00;0.00;;;16.10;59.10;;;;;;5050611;28;20660;-52
2023/07/17 01:40:12;;;;;;;0.10;0.10;;;16.20;59.20;;;;;;5050715;28;20195;-49
2023/07/17 01:42:43;;;;;;;0.10;0.10;;;16.20;59.20;;;;;;5050442;28;20195;-48
2023/07/17 01:45:14;;;;;;;0.10;0.10;;;16.20;59.20;;;;;;5051092;28;20695;-54
2023/07/17 01:47:44;;;;;;;0.10;0.10;;;16.30;59.20;;;;;;5050766;28;20223;-54
2023/07/17 01:50:15;;;;;;;0.10;0.10;;;16.30;59.20;;;;;;5049405;28;20199;-48
2023/07/17 01:52:45;;;;;;;0.10;0.10;;;16.30;59.20;;;;;;5050204;28;20207;-47
2023/07/17 01:55:18;;;;;;;0.10;0.10;;;16.30;59.20;;;;;;5049927;28;20687;-54
2023/07/17 01:57:49;;;;;;;0.10;0.10;;;16.40;59.20;;;;;;5050590;28;20210;-53
2023/07/17 02:00:19;;;;;;;0.05;0.05;;;16.40;59.20;;;;;;5050589;28;20199;-52
2023/07/17 02:02:50;;;;;;;0.10;0.10;;;16.40;59.30;;;;;;5050898;28;20570;-49
2023/07/17 02:05:21;;;;;;;0.00;0.00;;;16.50;59.30;;;;;;5049741;28;20212;-48
2023/07/17 02:07:51;;;;;;;0.00;0.00;;;16.50;59.30;;;;;;5050414;28;20230;-48
2023/07/17 02:10:24;;;;;;;0.10;0.10;;;16.50;59.30;;;;;;5051037;28;20598;-55
2023/07/17 02:12:55;;;;;;;0.00;0.00;;;16.60;59.30;;;;;;5051630;28;20303;-54
2023/07/17 02:15:25;;;;;;;0.10;0.10;;;16.60;59.30;;;;;;5045552;28;20216;-49
2023/07/17 02:17:56;;;;;;;0.10;0.10;;;16.60;59.30;;;;;;5042705;28;20202;-51
2023/07/17 02:20:26;;;;;;;0.10;0.10;;;16.70;59.40;;;;;;5051101;28;20191;-50
2023/07/17 02:22:57;;;;;;;0.10;0.10;;;16.70;59.30;;;;;;5050802;28;20204;-54
2023/07/17 02:25:30;;;;;;;0.10;0.10;;;16.70;59.30;;;;;;5051071;28;20223;-50
2023/07/17 02:28:00;;;;;;;0.10;0.10;;;16.70;59.30;;;;;;5050623;28;20718;-53
2023/07/17 02:30:31;;;;;;;0.10;0.10;;;16.80;59.30;;;;;;5050885;28;20203;-50
2023/07/17 02:33:02;;;;;;;0.00;0.00;;;16.80;59.30;;;;;;5050792;28;20196;-50
2023/07/17 02:35:33;;;;;;;0.00;0.00;;;16.80;59.30;;;;;;5051571;28;20215;-48
2023/07/17 02:38:04;;;;;;;0.00;0.00;;;16.90;59.30;;;;;;5054565;28;20214;-51
2023/07/17 02:40:36;;;;;;;0.00;0.00;;;16.90;59.30;;;;;;5054905;28;20282;-51
2023/07/17 02:43:07;;;;;;;0.03;0.03;;;17.00;59.40;;;;;;5054487;28;20290;-54
2023/07/17 02:45:39;;;;;;;0.10;0.10;;;17.00;59.40;;;;;;5054718;28;20216;-49
2023/07/17 02:48:09;;;;;;;0.10;0.10;;;17.00;59.40;;;;;;5054516;28;20230;-54
2023/07/17 02:50:40;;;;;;;0.10;0.10;;;17.10;59.40;;;;;;5054465;28;20199;-54
2023/07/17 02:53:11;;;;;;;0.10;0.10;;;17.10;59.40;;;;;;5054123;28;20200;-49
2023/07/17 02:55:44;;;;;;;0.05;0.05;;;17.10;59.40;;;;;;5053722;28;20285;-53
2023/07/17 02:58:18;;;;;;;0.10;0.10;;;17.20;59.40;;;;;;5054034;28;20535;-52
2023/07/17 03:00:49;;;;;;;0.10;0.10;;;17.20;59.40;;;;;;5054431;28;20227;-52
2023/07/17 03:03:20;;;;;;;0.10;0.10;;;17.20;59.40;;;;;;5051360;28;20265;-52
2023/07/17 03:05:51;;;;;;;0.10;0.10;;;17.30;59.40;;;;;;5041112;28;20231;-53
2023/07/17 03:08:21;;;;;;;0.10;0.10;;;17.30;59.40;;;;;;5035293;28;20224;-53
2023/07/17 03:10:54;;;;;;;0.00;0.00;;;17.30;59.40;;;;;;5041144;28;20200;-51
2023/07/17 03:13:24;;;;;;;0.00;0.00;;;17.40;59.40;;;;;;5036168;28;20212;-48
2023/07/17 03:15:58;;;;;;;0.00;0.00;;;17.40;59.40;;;;;;5053371;28;20222;-51
2023/07/17 03:18:29;;;;;;;0.10;0.10;;;17.40;59.30;;;;;;5052869;28;20273;-51
2023/07/17 03:20:59;;;;;;;0.03;0.03;;;17.50;59.30;;;;;;5053071;28;20210;-54
2023/07/17 03:23:30;;;;;;;0.10;0.10;;;17.50;59.30;;;;;;5053435;28;20192;-54
2023/07/17 03:26:03;;;;;;;0.08;0.08;;;17.50;59.20;;;;;;5053751;28;20699;-55
2023/07/17 03:28:34;;;;;;;0.10;0.10;;;17.60;59.20;;;;;;5053264;28;20227;-51
2023/07/17 03:31:05;;;;;;;0.10;0.10;;;17.60;59.20;;;;;;5052370;28;20643;-49
2023/07/17 03:33:37;;;;;;;0.10;0.10;;;17.60;59.10;;;;;;5052367;28;20249;-50
2023/07/17 03:36:08;;;;;;;0.10;0.10;;;17.60;59.10;;;;;;5052442;28;20224;-51
2023/07/17 03:38:40;;;;;;;0.03;0.03;;;17.70;59.10;;;;;;5053343;28;20230;-53
2023/07/17 03:41:13;;;;;;;0.10;0.10;;;17.70;59.10;;;;;;5052611;28;20274;-51
2023/07/17 03:43:43;;;;;;;0.10;0.10;;;17.70;59.10;;;;;;5053233;28;20195;-52
2023/07/17 03:46:14;;;;;;;0.10;0.10;;;17.70;59.00;;;;;;5052640;28;20226;-48
2023/07/17 03:48:45;;;;;;;0.10;0.10;;;17.80;59.00;;;;;;5051102;28;20219;-49
2023/07/17 03:51:15;;;;;;;0.10;0.10;;;17.80;58.90;;;;;;5052853;28;20196;-47
2023/07/17 03:53:46;;;;;;;0.00;0.00;;;17.90;58.70;;;;;;5052251;28;20695;-51
2023/07/17 03:56:19;;;;;;;0.00;0.00;;;17.90;58.70;;;;;;5032598;28;20208;-53
2023/07/17 03:58:50;;;;;;;0.10;0.10;;;17.90;58.60;;;;;;5035762;28;20229;-49
2023/07/17 04:01:20;;;;;;;0.10;0.10;;;17.90;58.50;;;;;;5053094;28;20257;-50
2023/07/17 04:03:51;;;;;;;0.00;0.00;;;18.00;58.50;;;;;;5052885;28;20230;-52
2023/07/17 04:06:22;;;;;;;0.10;0.10;;;18.00;58.40;;;;;;5052319;28;20211;-52
2023/07/17 04:08:52;;;;;;;0.10;0.10;;;18.00;58.40;;;;;;5052739;28;20561;-53
2023/07/17 04:11:25;;;;;;;0.10;0.10;;;18.00;58.40;;;;;;5053301;28;20218;-48
2023/07/17 04:13:55;;;;;;;0.10;0.10;;;18.00;58.40;;;;;;5047653;28;20199;-53
2023/07/17 04:16:26;;;;;;;0.10;0.10;;;18.10;58.40;;;;;;5052344;28;20211;-51
2023/07/17 04:18:57;;;;;;;0.00;0.00;;;18.10;58.30;;;;;;5052098;28;20683;-54
2023/07/17 04:21:28;;;;;;;0.10;0.10;;;18.10;58.20;;;;;;5052165;28;20199;-52
2023/07/17 04:23:58;;;;;;;0.00;0.00;;;18.10;58.20;;;;;;5052037;28;20188;-53
2023/07/17 04:26:31;;;;;;;0.10;0.10;;;18.20;58.20;;;;;;5052235;28;20223;-54
2023/07/17 04:29:02;;;;;;;0.10;0.10;;;18.20;58.10;;;;;;5052477;28;20215;-53
2023/07/17 04:31:32;;;;;;;0.10;0.10;;;18.20;58.10;;;;;;5041747;28;20204;-54
2023/07/17 04:34:03;;;;;;;0.10;0.10;;;18.20;58.10;;;;;;5035767;28;20274;-55
2023/07/17 04:36:34;;;;;;;0.00;0.00;;;18.20;58.10;;;;;;5052062;28;20242;-50
2023/07/17 04:39:05;;;;;;;0.05;0.05;;;18.20;58.10;;;;;;5051443;28;20184;-53
2023/07/17 04:41:37;;;;;;;0.03;0.03;;;18.20;58.10;;;;;;5051885;28;20196;-53
2023/07/17 04:44:08;;;;;;;0.10;0.10;;;18.30;58.00;;;;;;5051336;28;20188;-52
2023/07/17 04:46:39;;;;;;;0.10;0.10;;;18.20;58.00;;;;;;5056126;28;20199;-50
2023/07/17 04:49:09;;;;;;;0.20;0.20;;;18.30;58.00;;;;;;5068202;28;20212;-48
2023/07/17 04:51:40;;;;;;;0.00;0.00;;;18.30;58.00;;;;;;5052010;28;20615;-54
2023/07/17 04:54:11;;;;;;;0.10;0.10;;;18.30;57.90;;;;;;5051369;28;20647;-53
2023/07/17 04:56:43;;;;;;;0.10;0.10;;;18.30;58.00;;;;;;5052045;28;20203;-55
2023/07/17 04:59:15;;;;;;;0.10;0.10;;;18.30;57.90;;;;;;5050711;28;20517;-54
2023/07/17 05:01:45;;;;;;;0.10;0.10;;;18.30;57.90;;;;;;5051505;28;20195;-54
2023/07/17 05:04:16;;;;;;;0.10;0.10;;;18.30;57.90;;;;;;5051871;28;20195;-51
2023/07/17 05:06:46;;;;;;;0.10;0.10;;;18.30;57.80;;;;;;5051697;28;20200;-51
2023/07/17 05:09:18;;;;;;;0.10;0.10;;;18.30;57.80;;;;;;5051645;28;20215;-54
2023/07/17 05:11:50;;;;;;;0.00;0.00;;;18.30;57.80;;;;;;5051589;28;20245;-49
2023/07/17 05:14:21;;;;;;;0.10;0.10;;;18.30;57.80;;;;;;5051323;28;20561;-51
2023/07/17 05:16:51;;;;;;;0.10;0.10;;;18.30;57.70;;;;;;5051472;28;20273;-51
2023/07/17 05:19:22;;;;;;;0.10;0.10;;;18.30;57.70;;;;;;5051712;28;20202;-48
2023/07/17 05:21:52;;;;;;;0.10;0.10;;;18.30;57.60;;;;;;5051261;28;20550;-52
2023/07/17 05:24:24;;;;;;;0.10;0.10;;;18.30;57.60;;;;;;5050980;28;20383;-53
2023/07/17 05:26:56;;;;;;;0.05;0.05;;;18.30;57.50;;;;;;5040778;28;20679;-53
2023/07/17 05:29:27;;;;;;;0.10;0.10;;;18.30;57.50;;;;;;5031646;28;20215;-51
2023/07/17 05:31:57;;;;;;;0.10;0.10;;;18.30;57.40;;;;;;5049854;28;20610;-55
2023/07/17 05:34:28;;;;;;;0.10;0.10;;;18.30;57.40;;;;;;5049686;28;20211;-49
2023/07/17 05:36:59;;;;;;;0.10;0.10;;;18.30;57.30;;;;;;5037189;28;20203;-53
2023/07/17 05:39:30;;;;;;;0.10;0.10;;;18.30;57.40;;;;;;5050711;28;20232;-53
2023/07/17 05:42:03;;;;;;;0.10;0.10;;;18.30;57.40;;;;;;5051628;28;20196;-52
2023/07/17 05:44:34;;;;;;;0.10;0.10;;;18.30;57.40;;;;;;5050175;28;20222;-52
2023/07/17 05:47:05;;;;;;;0.03;0.03;;;18.30;57.30;;;;;;5050478;28;20537;-54
2023/07/17 05:49:36;;;;;;;0.10;0.10;;;18.30;57.30;;;;;;5050633;28;20215;-53
2023/07/17 05:52:07;;;;;;;0.10;0.10;;;18.30;57.30;;;;;;5049742;28;20192;-52
2023/07/17 05:54:38;;;;;;;0.10;0.10;;;18.20;57.20;;;;;;5049135;28;20216;-52
2023/07/17 05:57:11;;;;;;;0.10;0.10;;;18.30;57.90;;;;;;5030972;28;20196;-55
2023/07/17 05:59:41;;;;;;;0.00;0.00;;;18.20;57.10;;;;;;5038110;28;20257;-49
2023/07/17 06:02:12;;;;;;;0.10;0.10;;;18.20;57.10;;;;;;5050486;28;20650;-55
2023/07/17 06:04:42;;;;;;;0.00;0.00;;;18.20;57.10;;;;;;5049913;28;20717;-49
2023/07/17 06:07:13;;;;;;;0.10;0.10;;;18.20;57.10;;;;;;5046771;28;20192;-50
2023/07/17 06:09:44;;;;;;;0.10;0.10;;;18.20;57.00;;;;;;5050902;28;20218;-53
2023/07/17 06:12:16;;;;;;;0.10;0.10;;;18.20;57.00;;;;;;5053839;28;20439;-54
2023/07/17 06:14:47;;;;;;;0.10;0.10;;;18.20;57.10;;;;;;5054616;28;20210;-50
2023/07/17 06:17:17;;;;;;;0.00;0.00;;;18.20;57.10;;;;;;5054318;28;20211;-49
2023/07/17 06:19:48;;;;;;;0.10;0.10;;;18.20;57.10;;;;;;5053916;28;20183;-55
2023/07/17 06:22:19;;;;;;;0.10;0.10;;;18.20;57.10;;;;;;5054384;28;20245;-52
2023/07/17 06:24:49;;;;;;;0.10;0.10;;;18.20;57.10;;;;;;5054022;28;20721;-53
2023/07/17 06:27:22;;;;;;;0.10;0.10;;;18.20;57.00;;;;;;5053805;28;20195;-53
2023/07/17 06:29:53;;;;;;;0.10;0.10;;;18.20;56.90;;;;;;5053028;28;20219;-53
2023/07/17 06:32:23;;;;;;;0.10;0.10;;;18.10;56.90;;;;;;5054288;28;20604;-53
2023/07/17 06:34:54;;;;;;;0.03;0.03;;;18.10;56.90;;;;;;5054215;28;20300;-51
2023/07/17 06:37:25;;;;;;;0.00;0.00;;;18.10;56.80;;;;;;5054395;28;20249;-50
2023/07/17 06:39:55;;;;;;;0.10;0.10;;;18.10;56.90;;;;;;5054919;28;20593;-50
2023/07/17 06:42:30;;;;;;;0.00;0.00;;;18.10;56.90;;;;;;5053799;28;20199;-55
2023/07/17 06:45:00;;;;;;;0.00;0.00;;;18.00;56.80;;;;;;5054401;28;20671;-50
2023/07/17 06:47:31;;;;;;;0.10;0.10;;;18.10;56.80;;;;;;5053706;28;20196;-53
2023/07/17 06:50:02;;;;;;;0.00;0.00;;;18.00;56.80;;;;;;5053337;28;20220;-52
2023/07/17 06:52:33;;;;;;;0.10;0.10;;;18.10;56.90;;;;;;5053730;28;20195;-49
2023/07/17 06:55:03;;;;;;;0.00;0.00;;;18.10;56.90;;;;;;5053745;28;20208;-52
2023/07/17 06:57:36;;;;;;;0.10;0.10;;;18.10;56.90;;;;;;5053960;28;20207;-51
2023/07/17 07:00:07;;;;;;;0.10;0.10;;;18.10;56.90;;;;;;5040193;28;20671;-51
2023/07/17 07:02:38;;;;;;;0.10;0.10;;;18.10;56.90;;;;;;5053309;28;20191;-52
2023/07/17 07:05:10;;;;;;;0.10;0.10;;;18.10;56.90;;;;;;5049118;28;20555;-49
2023/07/17 07:07:40;;;;;;;0.08;0.08;;;18.00;56.80;;;;;;5034177;28;20203;-52
2023/07/17 07:10:11;;;;;;;0.10;0.10;;;18.00;56.80;;;;;;5038102;28;20215;-53
2023/07/17 07:12:44;;;;;;;0.10;0.10;;;18.00;56.70;;;;;;5053635;28;20210;-53
2023/07/17 07:15:15;;;;;;;0.00;0.00;;;18.00;56.70;;;;;;5053528;28;20205;-55
2023/07/17 07:17:45;;;;;;;0.10;0.10;;;17.90;56.70;;;;;;5053819;28;20216;-54
2023/07/17 07:20:16;;;;;;;0.05;0.05;;;18.00;56.80;;;;;;5053433;28;20187;-50
2023/07/17 07:22:47;;;;;;;0.10;0.10;;;17.90;56.80;;;;;;5051591;28;20199;-50
2023/07/17 07:25:17;;;;;;;0.00;0.00;;;17.90;56.80;;;;;;5053613;28;20211;-48
2023/07/17 07:27:50;;;;;;;0.10;0.10;;;17.90;56.70;;;;;;5053628;28;20222;-48
2023/07/17 07:30:21;;;;;;;0.10;0.10;;;17.90;56.80;;;;;;5052230;28;20226;-51
2023/07/17 07:32:51;;;;;;;0.10;0.10;;;17.90;56.80;;;;;;5052112;28;20207;-47
2023/07/17 07:35:22;;;;;;;0.08;0.08;;;17.90;56.80;;;;;;5048083;28;20224;-48
2023/07/17 07:37:53;;;;;;;0.10;0.10;;;17.90;56.80;;;;;;5033888;28;20227;-49
2023/07/17 07:40:25;;;;;;;0.10;0.10;;;17.90;56.70;;;;;;5033458;28;20196;-49
2023/07/17 07:42:58;;;;;;;0.10;0.10;;;17.90;56.80;;;;;;5033531;28;20254;-48
2023/07/17 07:45:28;;;;;;;0.10;0.10;;;17.90;56.80;;;;;;5047727;28;20215;-49
2023/07/17 07:47:59;;;;;;;0.10;0.10;;;17.90;56.80;;;;;;5053515;28;20203;-49
2023/07/17 07:50:29;;;;;;;0.10;0.10;;;17.90;56.80;;;;;;5053112;28;20234;-50
2023/07/17 07:53:00;;;;;;;0.10;0.10;;;17.80;56.70;;;;;;5053447;28;20198;-48
2023/07/17 07:55:31;;;;;;;0.10;0.10;;;17.90;56.70;;;;;;5053310;28;20216;-48
2023/07/17 07:58:03;;;;;;;0.03;0.03;;;17.80;56.70;;;;;;5052977;28;20253;-49
2023/07/17 08:00:34;;;;;;;0.10;0.10;;;17.80;56.70;;;;;;5034834;28;20215;-48
2023/07/17 08:03:04;;;;;;;0.10;0.10;;;17.80;56.80;;;;;;5033112;28;20603;-49
2023/07/17 08:05:35;;;;;;;0.10;0.10;;;17.80;56.70;;;;;;5039867;28;20227;-49
2023/07/17 08:08:06;;;;;;;0.00;0.00;;;17.80;56.70;;;;;;5052779;28;20199;-49
2023/07/17 08:10:39;;;;;;;0.00;0.00;;;17.80;56.70;;;;;;5053096;28;20314;-50
2023/07/17 08:13:12;;;;;;;0.10;0.10;;;17.70;56.70;;;;;;5053162;28;20629;-48
2023/07/17 08:15:42;;;;;;;0.10;0.10;;;17.80;56.70;;;;;;5049542;28;20208;-49
2023/07/17 08:18:13;;;;;;;0.10;0.10;;;17.80;56.80;;;;;;5053141;28;20203;-52
2023/07/17 08:20:44;;;;;;;0.10;0.10;;;17.70;56.70;;;;;;5052347;28;20246;-49
2023/07/17 08:23:14;;;;;;;0.10;0.10;;;17.80;56.80;;;;;;5052329;28;20642;-48
2023/07/17 08:25:45;;;;;;;0.10;0.10;;;17.70;56.70;;;;;;5052653;28;20223;-48
2023/07/17 08:28:17;;;;;;;0.10;0.10;;;17.70;56.70;;;;;;5052628;28;20199;-53
2023/07/17 08:30:48;;;;;;;0.10;0.10;;;17.70;56.70;;;;;;5051684;28;20604;-50
2023/07/17 08:33:19;;;;;;;0.10;0.10;;;17.70;56.60;;;;;;5051954;28;20214;-49
2023/07/17 08:35:51;;;;;;;0.00;0.00;;;17.70;56.70;;;;;;5049235;28;20617;-48
2023/07/17 08:38:22;;;;;;;0.00;0.00;;;17.70;55.50;;;;;;5052640;28;20202;-48
2023/07/17 08:40:55;;;;;;;0.10;0.10;;;17.60;54.80;;;;;;5052953;28;20574;-47
2023/07/17 08:43:28;;;;;;;0.10;0.10;;;17.60;54.70;;;;;;5052692;28;20291;-51
2023/07/17 08:46:01;;;;;;;0.10;0.10;;;17.60;54.70;;;;;;5051951;28;20261;-47
2023/07/17 08:48:32;;;;;;;0.08;0.08;;;17.50;54.80;;;;;;5052299;28;20200;-49
2023/07/17 08:51:04;;;;;;;0.10;0.10;;;17.50;54.90;;;;;;5041357;28;20216;-48
2023/07/17 08:53:36;;;;;;;0.10;0.10;;;17.50;54.90;;;;;;5040868;28;20262;-49
2023/07/17 08:56:08;;;;;;;0.00;0.00;;;17.50;55.00;;;;;;5041585;28;20671;-52
2023/07/17 08:58:41;;;;;;;0.10;0.10;;;17.50;55.00;;;;;;5034885;28;20196;-53
2023/07/17 09:01:12;;;;;;;0.10;0.10;;;17.50;55.10;;;;;;5030998;28;20321;-50
2023/07/17 09:03:43;;;;;;;0.10;0.10;;;17.50;55.20;;;;;;5029288;28;20207;-47
2023/07/17 09:06:17;;;;;;;0.13;0.13;;;17.50;55.20;;;;;;5036461;28;20212;-48
2023/07/17 09:08:47;;;;;;;0.10;0.10;;;17.50;55.20;;;;;;5033290;28;20196;-48
2023/07/17 09:11:19;;;;;;;0.05;0.05;;;17.50;55.30;;;;;;5038741;28;20231;-50
2023/07/17 09:13:52;;;;;;;0.10;0.10;;;17.40;55.20;;;;;;5033806;28;20200;-47
2023/07/17 09:16:24;;;;;;;0.10;0.10;;;17.40;55.30;;;;;;5050960;28;20683;-51
2023/07/17 09:18:56;;;;;;;0.10;0.10;;;17.40;55.30;;;;;;5050852;28;20203;-49
2023/07/17 09:21:29;;;;;;;0.10;0.10;;;17.40;55.30;;;;;;5050870;28;20207;-48
2023/07/17 09:24:00;;;;;;;0.10;0.10;;;17.40;55.30;;;;;;5051063;28;20196;-47
2023/07/17 09:26:31;;;;;;;0.00;0.00;;;17.40;55.30;;;;;;5051052;28;20226;-48
2023/07/17 09:29:04;;;;;;;0.10;0.10;;;17.40;55.40;;;;;;5051504;28;20269;-49
2023/07/17 09:31:36;;;;;;;0.10;0.10;;;17.40;55.40;;;;;;5050940;28;20265;-48
2023/07/17 09:34:14;;;;;;;0.10;0.10;;;17.40;55.50;;;;;;5050648;28;20270;-51
2023/07/17 09:36:44;;;;;;;0.10;0.10;;;17.40;55.50;;;;;;5049499;28;20290;-49
2023/07/17 09:39:16;;;;;;;0.10;0.10;;;17.40;55.50;;;;;;5066592;28;20242;-48
2023/07/17 09:41:46;;;;;;;0.10;0.10;;;17.40;55.50;;;;;;5051386;28;20252;-49
2023/07/17 09:44:22;;;;;;;0.10;0.10;;;17.40;55.60;;;;;;5050254;28;20197;-51
2023/07/17 09:46:53;;;;;;;0.10;0.10;;;17.40;55.60;;;;;;5051271;28;20195;-50
2023/07/17 09:49:24;;;;;;;0.10;0.10;;;17.40;55.60;;;;;;5050330;28;20241;-48
2023/07/17 09:51:58;;;;;;;0.10;0.10;;;17.40;55.60;;;;;;5050438;28;20227;-48
2023/07/17 09:54:28;;;;;;;0.10;0.10;;;17.40;55.60;;;;;;5044964;28;20242;-49
2023/07/17 09:56:59;;;;;;;0.10;0.10;;;17.40;55.60;;;;;;5030892;28;20192;-48
2023/07/17 09:59:34;;;;;;;0.10;0.10;;;17.30;55.60;;;;;;5035224;28;20230;-49
2023/07/17 10:02:06;;;;;;;0.00;0.00;;;17.30;55.60;;;;;;5050699;28;20388;-48
2023/07/17 10:04:41;;;;;;;0.10;0.10;;;17.40;55.60;;;;;;5049608;28;20215;-47
2023/07/17 10:07:15;;;;;;;0.10;0.10;;;17.30;55.60;;;;;;5032649;28;20196;-48
2023/07/17 10:09:49;;;;;;;0.10;0.10;;;17.30;55.60;;;;;;5037433;28;20198;-49
2023/07/17 10:12:20;;;;;;;0.10;0.10;;;17.30;55.70;;;;;;5030447;28;20231;-48
2023/07/17 10:14:53;;;;;;;0.10;0.10;;;17.30;55.70;;;;;;5037777;28;20219;-47
2023/07/17 10:17:31;;;;;;;0.00;0.00;;;17.30;55.70;;;;;;5050285;28;20265;-47
2023/07/17 10:20:03;;;;;;;0.00;0.00;;;17.30;55.70;;;;;;5050681;28;20230;-50
2023/07/17 10:22:39;;;;;;;0.10;0.10;;;17.30;55.70;;;;;;5050688;28;20191;-47
2023/07/17 10:25:24;;;;;;;0.10;0.10;;;17.30;55.70;;;;;;5050379;28;20278;-48
2023/07/17 10:28:00;;;;;;;0.10;0.10;;;17.30;55.80;;;;;;5050531;28;20601;-49
2023/07/17 10:30:34;;;;;;;0.10;0.10;;;17.30;55.70;;;;;;5050578;28;20218;-50
2023/07/17 10:33:11;;;;;;;0.05;0.05;;;17.30;55.70;;;;;;5050346;28;20269;-48
2023/07/17 10:35:49;;;;;;;0.10;0.10;;;17.30;55.70;;;;;;5049764;28;20269;-50
2023/07/17 10:38:20;;;;;;;0.00;0.00;;;17.20;55.70;;;;;;5050347;28;20192;-49
2023/07/17 10:40:51;;;;;;;0.10;0.10;;;17.30;55.80;;;;;;5049749;28;20199;-53
2023/07/17 10:43:22;;;;;;;0.10;0.10;;;17.30;55.80;;;;;;5050400;28;20198;-47
2023/07/17 10:45:55;;;;;;;0.10;0.10;;;17.20;55.80;;;;;;5049306;28;20216;-47
2023/07/17 10:48:30;;;;;;;0.10;0.10;;;17.20;55.80;;;;;;5049821;28;20199;-52
2023/07/17 10:51:01;;;;;;;0.00;0.00;;;17.20;55.80;;;;;;5049789;28;20215;-47
2023/07/17 10:53:32;;;;;;;0.03;0.03;;;17.20;55.80;;;;;;5050209;28;20234;-49
2023/07/17 10:56:02;;;;;;;0.10;0.10;;;17.20;55.80;;;;;;5050127;28;20679;-47
2023/07/17 10:58:33;;;;;;;0.10;0.10;;;17.20;55.80;;;;;;5053198;28;20203;-50
2023/07/17 11:01:09;;;;;;;0.10;0.10;;;17.20;55.90;;;;;;5048631;28;20257;-47
2023/07/17 11:03:40;;;;;;;0.10;0.10;;;17.20;55.90;;;;;;5054325;28;20202;-49
2023/07/17 11:06:11;;;;;;;0.10;0.10;;;17.20;55.90;;;;;;5041785;28;20684;-47
2023/07/17 11:08:42;;;;;;;0.03;0.03;;;17.20;55.90;;;;;;5034120;28;20676;-47
2023/07/17 11:11:13;;;;;;;0.10;0.10;;;17.20;55.90;;;;;;5048862;28;20216;-48
2023/07/17 11:13:46;;;;;;;0.05;0.05;;;17.20;55.90;;;;;;5053276;28;20536;-48
2023/07/17 11:16:22;;;;;;;0.00;0.00;;;17.20;55.90;;;;;;5052932;28;20298;-50
2023/07/17 11:18:54;;;;;;;0.03;0.03;;;17.20;55.80;;;;;;5053892;28;20195;-47
2023/07/17 11:21:26;;;;;;;0.08;0.08;;;17.20;55.90;;;;;;5053344;28;20191;-48
2023/07/17 11:23:59;;;;;;;0.10;0.10;;;17.10;55.80;;;;;;5054054;28;20199;-47
2023/07/17 11:26:31;;;;;;;0.08;0.08;;;17.10;55.80;;;;;;5053054;28;20626;-48
2023/07/17 11:29:02;;;;;;;0.10;0.10;;;17.10;55.90;;;;;;5053697;28;20206;-47
2023/07/17 11:31:35;;;;;;;0.10;0.10;;;17.10;55.90;;;;;;5052416;28;20238;-48
2023/07/17 11:34:09;;;;;;;0.00;0.00;;;17.10;55.90;;;;;;5053003;28;20199;-48
2023/07/17 11:36:44;;;;;;;0.10;0.10;;;17.10;55.90;;;;;;5052679;28;20214;-47
2023/07/17 11:39:16;;;;;;;0.10;0.10;;;17.10;55.90;;;;;;5052412;28;20187;-51
2023/07/17 11:41:50;;;;;;;0.10;0.10;;;17.10;55.90;;;;;;5052820;28;20249;-48
2023/07/17 11:44:26;;;;;;;0.10;0.10;;;17.10;56.00;;;;;;5053570;28;20716;-47
2023/07/17 11:47:00;;;;;;;0.00;0.00;;;17.10;56.00;;;;;;5044763;28;20550;-50
2023/07/17 11:49:30;;;;;;;0.10;0.10;;;17.10;56.00;;;;;;5033468;28;20196;-47
2023/07/17 11:52:01;;;;;;;0.10;0.10;;;17.10;56.00;;;;;;5035226;28;20511;-49
2023/07/17 11:54:44;;;;;;;0.03;0.03;;;17.10;56.00;;;;;;5043639;28;20200;-49
2023/07/17 11:57:15;;;;;;;0.10;0.10;;;17.10;55.90;;;;;;5043414;28;20187;-52
2023/07/17 11:59:48;;;;;;;0.00;0.00;;;17.10;56.00;;;;;;5042908;28;20866;-52
2023/07/17 12:02:20;;;;;;;0.10;0.10;;;17.10;56.00;;;;;;5041849;28;20188;-49
2023/07/17 12:04:51;;;;;;;0.10;0.10;;;17.00;55.90;;;;;;5039474;28;20212;-53
2023/07/17 12:07:22;;;;;;;0.10;0.10;;;17.10;55.90;;;;;;5042455;28;20653;-53
2023/07/17 12:09:53;;;;;;;0.00;0.00;;;17.00;55.90;;;;;;5041284;28;20200;-52
2023/07/17 12:12:23;;;;;;;0.03;0.03;;;17.00;55.90;;;;;;5042739;28;20251;-49
2023/07/17 12:14:54;;;;;;;0.10;0.10;;;17.00;56.00;;;;;;5044169;28;20215;-50
2023/07/17 12:17:26;;;;;;;0.10;0.10;;;17.00;56.00;;;;;;5042689;28;20192;-49
2023/07/17 12:19:57;;;;;;;0.00;0.00;;;17.00;56.00;;;;;;5041417;28;20184;-53
2023/07/17 12:22:27;;;;;;;0.10;0.10;;;17.00;56.10;;;;;;5042398;28;20188;-52
2023/07/17 12:24:58;;;;;;;0.03;0.03;;;17.00;56.10;;;;;;5041145;28;20555;-51
2023/07/17 12:27:29;;;;;;;0.10;0.10;;;17.00;56.10;;;;;;5041553;28;20275;-50
2023/07/17 12:29:59;;;;;;;0.00;0.00;;;17.00;56.10;;;;;;5041685;28;20196;-52
2023/07/17 12:32:32;;;;;;;0.00;0.00;;;17.00;56.10;;;;;;5042510;28;20220;-49
2023/07/17 12:35:02;;;;;;;0.10;0.10;;;17.00;56.10;;;;;;5033281;28;20211;-51
2023/07/17 12:37:34;;;;;;;0.10;0.10;;;17.00;56.00;;;;;;5043098;28;20199;-50
2023/07/17 12:40:05;;;;;;;0.08;0.08;;;16.90;55.90;;;;;;5042287;28;20189;-50
2023/07/17 12:42:35;;;;;;;0.10;0.10;;;17.00;55.90;;;;;;5041056;28;20200;-52
2023/07/17 12:45:06;;;;;;;0.10;0.10;;;17.00;56.00;;;;;;5042061;28;20207;-48
2023/07/17 12:47:39;;;;;;;0.10;0.10;;;16.90;55.90;;;;;;5043416;28;20192;-48
2023/07/17 12:50:10;;;;;;;0.10;0.10;;;16.90;55.90;;;;;;5042529;28;20192;-49
2023/07/17 12:52:41;;;;;;;0.10;0.10;;;16.90;56.00;;;;;;5040846;28;20595;-49
2023/07/17 12:55:12;;;;;;;0.10;0.10;;;16.90;56.00;;;;;;5040994;28;20257;-50
2023/07/17 12:57:42;;;;;;;0.10;0.10;;;16.90;56.00;;;;;;5032034;28;20184;-50
2023/07/17 13:00:14;;;;;;;0.10;0.10;;;16.90;56.00;;;;;;5031843;28;20196;-51
2023/07/17 13:02:46;;;;;;;0.05;0.05;;;16.90;56.00;;;;;;5031997;28;20196;-49
2023/07/17 13:05:17;;;;;;;0.10;0.10;;;16.90;56.10;;;;;;5033684;28;20474;-48
2023/07/17 13:07:48;;;;;;;0.10;0.10;;;16.90;56.00;;;;;;5041184;28;20196;-48
2023/07/17 13:10:19;;;;;;;0.00;0.00;;;16.90;56.10;;;;;;5041020;28;20636;-50